Hi Nella, New Jersey
Current Conditions -  °F | °C
As of 10:54 PM on Wednesday 17 Dec 2014 (Local Time) from KPHL Reporting Station
Scattered Clouds Scattered Clouds  
Wind Chill: 30°   Ceiling: Unl
Heat Index: 40°   Visibility: 10mi
Dew Point: 21°   Wind: 21mph
Humidity: 47%   Direction: 300°WNW
Pressure: 29.99"   Gusts: 29mph
Location:  39.841°N, 75.0314°W
Report Text: KPHL 180354Z 30018G25KT 10SM SCT130 04/M06 A2999 RMK AO2 SLP155 T00441061
Loading
Personal Weather Stations






























Interactive Weather Map New forecast layout! Learn more

10-Day Weather Forecast

Advertisements
Track Severe Weather on mobile